sensor_id;sensor_type;location;lat;lon;timestamp;temperature;humidity
49042;DHT22;34859;51.608;11.462;2024-03-02T00:01:59;3.50;99.90
49042;DHT22;34859;51.608;11.462;2024-03-02T00:04:45;3.50;99.90
49042;DHT22;34859;51.608;11.462;2024-03-02T00:07:31;3.40;99.90
49042;DHT22;34859;51.608;11.462;2024-03-02T00:10:22;3.50;99.90
49042;DHT22;34859;51.608;11.462;2024-03-02T00:13:15;3.30;99.90
49042;DHT22;34859;51.608;11.462;2024-03-02T00:16:01;3.40;99.90
49042;DHT22;34859;51.608;11.462;2024-03-02T00:18:47;3.40;99.90
49042;DHT22;34859;51.608;11.462;2024-03-02T00:21:33;3.40;99.90
49042;DHT22;34859;51.608;11.462;2024-03-02T00:24:33;3.40;99.90
49042;DHT22;34859;51.608;11.462;2024-03-02T00:27:20;3.40;99.90
49042;DHT22;34859;51.608;11.462;2024-03-02T00:33:33;3.40;99.90
49042;DHT22;34859;51.608;11.462;2024-03-02T00:36:26;3.50;99.90
49042;DHT22;34859;51.608;11.462;2024-03-02T00:39:15;3.50;99.90
49042;DHT22;34859;51.608;11.462;2024-03-02T00:42:03;3.70;99.90
49042;DHT22;34859;51.608;11.462;2024-03-02T00:44:49;3.70;99.90
49042;DHT22;34859;51.608;11.462;2024-03-02T00:47:39;3.80;99.90
49042;DHT22;34859;51.608;11.462;2024-03-02T12:12:10;12.70;99.90
49042;DHT22;34859;51.608;11.462;2024-03-02T12:14:56;12.70;99.90
49042;DHT22;34859;51.608;11.462;2024-03-02T12:17:42;12.80;99.90
49042;DHT22;34859;51.608;11.462;2024-03-02T12:20:29;12.80;99.90
49042;DHT22;34859;51.608;11.462;2024-03-02T12:23:16;12.90;99.90
49042;DHT22;34859;51.608;11.462;2024-03-02T12:26:02;12.90;99.90
49042;DHT22;34859;51.608;11.462;2024-03-02T12:28:48;13.10;99.90
49042;DHT22;34859;51.608;11.462;2024-03-02T12:31:34;13.10;99.90
49042;DHT22;34859;51.608;11.462;2024-03-02T12:34:22;13.10;99.90
49042;DHT22;34859;51.608;11.462;2024-03-02T12:37:12;13.10;99.90
49042;DHT22;34859;51.608;11.462;2024-03-02T12:39:58;13.10;99.90
49042;DHT22;34859;51.608;11.462;2024-03-02T12:42:45;13.20;99.90
49042;DHT22;34859;51.608;11.462;2024-03-02T12:45:31;13.20;99.90
49042;DHT22;34859;51.608;11.462;2024-03-02T12:48:17;13.20;99.90
49042;DHT22;34859;51.608;11.462;2024-03-02T12:51:03;13.30;99.90
49042;DHT22;34859;51.608;11.462;2024-03-02T12:53:56;13.30;99.90
49042;DHT22;34859;51.608;11.462;2024-03-02T12:56:43;13.40;99.90
49042;DHT22;34859;51.608;11.462;2024-03-02T12:59:31;13.50;99.90
49042;DHT22;34859;51.608;11.462;2024-03-02T13:02:18;13.50;99.90
49042;DHT22;34859;51.608;11.462;2024-03-02T13:05:06;13.50;99.90
49042;DHT22;34859;51.608;11.462;2024-03-02T13:07:56;13.40;99.90
49042;DHT22;34859;51.608;11.462;2024-03-02T13:10:42;13.40;99.90
49042;DHT22;34859;51.608;11.462;2024-03-02T13:13:31;13.40;99.90
49042;DHT22;34859;51.608;11.462;2024-03-02T13:16:18;13.30;99.90
49042;DHT22;34859;51.608;11.462;2024-03-02T13:19:09;13.20;99.90
49042;DHT22;34859;51.608;11.462;2024-03-02T13:21:55;13.00;99.90
49042;DHT22;34859;51.608;11.462;2024-03-02T13:24:41;12.80;99.90
49042;DHT22;34859;51.608;11.462;2024-03-02T13:27:28;12.70;99.90
49042;DHT22;34859;51.608;11.462;2024-03-02T13:30:14;12.70;99.90
49042;DHT22;34859;51.608;11.462;2024-03-02T13:33:00;12.70;99.90
49042;DHT22;34859;51.608;11.462;2024-03-02T13:35:46;12.60;99.90
49042;DHT22;34859;51.608;11.462;2024-03-02T13:38:32;12.50;99.90
49042;DHT22;34859;51.608;11.462;2024-03-02T13:41:18;12.40;99.90
49042;DHT22;34859;51.608;11.462;2024-03-02T13:44:04;12.30;99.90
49042;DHT22;34859;51.608;11.462;2024-03-02T13:46:50;12.40;99.90
49042;DHT22;34859;51.608;11.462;2024-03-02T13:49:37;12.40;99.90
49042;DHT22;34859;51.608;11.462;2024-03-02T13:52:25;12.50;99.90
49042;DHT22;34859;51.608;11.462;2024-03-02T13:55:12;12.60;99.90
49042;DHT22;34859;51.608;11.462;2024-03-02T13:57:58;12.70;99.90
49042;DHT22;34859;51.608;11.462;2024-03-02T14:00:45;12.90;99.90
49042;DHT22;34859;51.608;11.462;2024-03-02T14:03:31;13.00;99.90
49042;DHT22;34859;51.608;11.462;2024-03-02T14:06:17;12.90;99.90
49042;DHT22;34859;51.608;11.462;2024-03-02T14:09:03;12.80;99.90
49042;DHT22;34859;51.608;11.462;2024-03-02T14:11:56;12.70;99.90
49042;DHT22;34859;51.608;11.462;2024-03-02T14:14:42;12.70;99.90
49042;DHT22;34859;51.608;11.462;2024-03-02T14:17:28;12.70;99.90
49042;DHT22;34859;51.608;11.462;2024-03-02T14:20:14;12.60;99.90
49042;DHT22;34859;51.608;11.462;2024-03-02T14:23:06;12.70;99.90
49042;DHT22;34859;51.608;11.462;2024-03-02T14:25:52;12.70;99.90
49042;DHT22;34859;51.608;11.462;2024-03-02T14:28:37;12.60;99.90
49042;DHT22;34859;51.608;11.462;2024-03-02T14:31:23;12.50;99.90
49042;DHT22;34859;51.608;11.462;2024-03-02T14:34:09;12.40;99.90
49042;DHT22;34859;51.608;11.462;2024-03-02T14:36:55;12.50;99.90
49042;DHT22;34859;51.608;11.462;2024-03-02T14:39:41;12.60;99.90
49042;DHT22;34859;51.608;11.462;2024-03-02T14:42:27;12.60;99.90
49042;DHT22;34859;51.608;11.462;2024-03-02T14:45:17;12.60;99.90
49042;DHT22;34859;51.608;11.462;2024-03-02T14:48:03;12.60;99.90
49042;DHT22;34859;51.608;11.462;2024-03-02T14:50:50;12.70;99.90
49042;DHT22;34859;51.608;11.462;2024-03-02T14:53:36;12.60;99.90
49042;DHT22;34859;51.608;11.462;2024-03-02T14:56:23;12.70;99.90
49042;DHT22;34859;51.608;11.462;2024-03-02T14:59:09;12.60;99.90
49042;DHT22;34859;51.608;11.462;2024-03-02T15:01:56;12.70;99.90
49042;DHT22;34859;51.608;11.462;2024-03-02T15:04:42;12.60;99.90
49042;DHT22;34859;51.608;11.462;2024-03-02T15:07:30;12.60;99.90
49042;DHT22;34859;51.608;11.462;2024-03-02T15:10:16;12.70;99.90
49042;DHT22;34859;51.608;11.462;2024-03-02T15:13:02;12.80;99.90
49042;DHT22;34859;51.608;11.462;2024-03-02T15:15:48;12.80;99.90
49042;DHT22;34859;51.608;11.462;2024-03-02T15:18:35;12.80;99.90
49042;DHT22;34859;51.608;11.462;2024-03-02T15:21:20;12.90;99.90
49042;DHT22;34859;51.608;11.462;2024-03-02T15:24:07;12.80;99.90
49042;DHT22;34859;51.608;11.462;2024-03-02T15:26:53;12.70;99.90
49042;DHT22;34859;51.608;11.462;2024-03-02T15:29:39;12.80;99.90
49042;DHT22;34859;51.608;11.462;2024-03-02T15:32:25;12.70;99.90
49042;DHT22;34859;51.608;11.462;2024-03-02T15:35:12;12.60;99.90
49042;DHT22;34859;51.608;11.462;2024-03-02T15:37:58;12.40;99.90
49042;DHT22;34859;51.608;11.462;2024-03-02T15:40:45;12.10;99.90
49042;DHT22;34859;51.608;11.462;2024-03-02T15:43:30;12.00;99.90
49042;DHT22;34859;51.608;11.462;2024-03-02T15:46:16;11.80;99.90
49042;DHT22;34859;51.608;11.462;2024-03-02T15:49:02;11.60;99.90
49042;DHT22;34859;51.608;11.462;2024-03-02T15:51:51;11.40;99.90
49042;DHT22;34859;51.608;11.462;2024-03-02T15:54:37;11.40;99.90
49042;DHT22;34859;51.608;11.462;2024-03-02T15:57:23;11.30;99.90
49042;DHT22;34859;51.608;11.462;2024-03-02T16:00:09;11.20;99.90
49042;DHT22;34859;51.608;11.462;2024-03-02T16:02:55;11.10;99.90
49042;DHT22;34859;51.608;11.462;2024-03-02T16:05:41;11.00;99.90
49042;DHT22;34859;51.608;11.462;2024-03-02T16:08:27;10.80;99.90
49042;DHT22;34859;51.608;11.462;2024-03-02T16:11:13;10.70;99.90
49042;DHT22;34859;51.608;11.462;2024-03-02T16:13:59;10.60;99.90
49042;DHT22;34859;51.608;11.462;2024-03-02T16:16:44;10.50;99.90
49042;DHT22;34859;51.608;11.462;2024-03-02T16:19:30;10.40;99.90
49042;DHT22;34859;51.608;11.462;2024-03-02T16:22:16;10.30;99.90
49042;DHT22;34859;51.608;11.462;2024-03-02T16:25:02;10.20;99.90
49042;DHT22;34859;51.608;11.462;2024-03-02T16:27:48;10.10;99.90
49042;DHT22;34859;51.608;11.462;2024-03-02T16:30:34;10.00;99.90
49042;DHT22;34859;51.608;11.462;2024-03-02T16:33:20;9.90;99.90
49042;DHT22;34859;51.608;11.462;2024-03-02T16:36:06;9.80;99.90
49042;DHT22;34859;51.608;11.462;2024-03-02T16:38:52;9.80;99.90
49042;DHT22;34859;51.608;11.462;2024-03-02T16:41:38;9.50;99.90
49042;DHT22;34859;51.608;11.462;2024-03-02T16:44:28;9.40;99.90
49042;DHT22;34859;51.608;11.462;2024-03-02T16:47:14;9.30;99.90
49042;DHT22;34859;51.608;11.462;2024-03-02T16:50:01;9.30;99.90
49042;DHT22;34859;51.608;11.462;2024-03-02T16:52:48;9.20;99.90
49042;DHT22;34859;51.608;11.462;2024-03-02T16:55:34;9.10;99.90
49042;DHT22;34859;51.608;11.462;2024-03-02T16:58:20;8.90;99.90
49042;DHT22;34859;51.608;11.462;2024-03-02T17:01:06;8.90;99.90
49042;DHT22;34859;51.608;11.462;2024-03-02T17:03:53;8.80;99.90
49042;DHT22;34859;51.608;11.462;2024-03-02T17:06:39;8.70;99.90
49042;DHT22;34859;51.608;11.462;2024-03-02T17:09:24;8.60;99.90
49042;DHT22;34859;51.608;11.462;2024-03-02T17:12:10;8.50;99.90
49042;DHT22;34859;51.608;11.462;2024-03-02T17:14:57;8.50;99.90
49042;DHT22;34859;51.608;11.462;2024-03-02T17:17:43;8.40;99.90
49042;DHT22;34859;51.608;11.462;2024-03-02T17:20:28;8.30;99.90
49042;DHT22;34859;51.608;11.462;2024-03-02T17:23:17;8.20;99.90
49042;DHT22;34859;51.608;11.462;2024-03-02T17:26:03;8.30;99.90
49042;DHT22;34859;51.608;11.462;2024-03-02T17:28:49;8.10;99.90
49042;DHT22;34859;51.608;11.462;2024-03-02T17:31:35;8.10;99.90
49042;DHT22;34859;51.608;11.462;2024-03-02T17:34:21;7.90;99.90
49042;DHT22;34859;51.608;11.462;2024-03-02T17:37:09;7.70;99.90
49042;DHT22;34859;51.608;11.462;2024-03-02T17:39:55;7.60;99.90
49042;DHT22;34859;51.608;11.462;2024-03-02T17:42:41;7.50;99.90
49042;DHT22;34859;51.608;11.462;2024-03-02T17:45:27;7.40;99.90
49042;DHT22;34859;51.608;11.462;2024-03-02T17:48:13;7.30;99.90
49042;DHT22;34859;51.608;11.462;2024-03-02T17:50:59;7.30;99.90
49042;DHT22;34859;51.608;11.462;2024-03-02T17:53:45;7.30;99.90
49042;DHT22;34859;51.608;11.462;2024-03-02T17:56:34;7.30;99.90
49042;DHT22;34859;51.608;11.462;2024-03-02T17:59:20;7.30;99.90
49042;DHT22;34859;51.608;11.462;2024-03-02T18:02:06;7.20;99.90
49042;DHT22;34859;51.608;11.462;2024-03-02T18:04:53;7.20;99.90
49042;DHT22;34859;51.608;11.462;2024-03-02T18:07:40;7.30;99.90
49042;DHT22;34859;51.608;11.462;2024-03-02T18:10:26;7.10;99.90
49042;DHT22;34859;51.608;11.462;2024-03-02T18:13:14;7.10;99.90
49042;DHT22;34859;51.608;11.462;2024-03-02T18:16:02;7.00;99.90
49042;DHT22;34859;51.608;11.462;2024-03-02T18:18:48;7.10;99.90
49042;DHT22;34859;51.608;11.462;2024-03-02T18:21:35;7.00;99.90
49042;DHT22;34859;51.608;11.462;2024-03-02T18:24:21;6.90;99.90
49042;DHT22;34859;51.608;11.462;2024-03-02T18:27:11;7.00;99.90
49042;DHT22;34859;51.608;11.462;2024-03-02T18:29:57;6.90;99.90
49042;DHT22;34859;51.608;11.462;2024-03-02T18:32:44;6.70;99.90
49042;DHT22;34859;51.608;11.462;2024-03-02T18:35:30;6.70;99.90
49042;DHT22;34859;51.608;11.462;2024-03-02T18:38:16;6.60;99.90
49042;DHT22;34859;51.608;11.462;2024-03-02T18:41:03;6.40;99.90
49042;DHT22;34859;51.608;11.462;2024-03-02T18:43:50;6.50;99.90
49042;DHT22;34859;51.608;11.462;2024-03-02T18:46:39;6.60;99.90
49042;DHT22;34859;51.608;11.462;2024-03-02T18:49:26;6.60;99.90
49042;DHT22;34859;51.608;11.462;2024-03-02T18:52:14;6.60;99.90
49042;DHT22;34859;51.608;11.462;2024-03-02T18:55:24;6.40;99.90
49042;DHT22;34859;51.608;11.462;2024-03-02T18:58:34;6.20;99.90
49042;DHT22;34859;51.608;11.462;2024-03-02T20:30:53;4.90;99.90
49042;DHT22;34859;51.608;11.462;2024-03-02T20:46:08;4.90;99.90
49042;DHT22;34859;51.608;11.462;2024-03-02T20:53:36;4.70;99.90
49042;DHT22;34859;51.608;11.462;2024-03-02T21:09:02;4.30;99.90
49042;DHT22;34859;51.608;11.462;2024-03-02T21:13:21;4.00;99.90
49042;DHT22;34859;51.608;11.462;2024-03-02T21:17:32;3.80;99.90
49042;DHT22;34859;51.608;11.462;2024-03-02T21:21:36;3.80;99.90
49042;DHT22;34859;51.608;11.462;2024-03-02T21:25:48;3.60;99.90
49042;DHT22;34859;51.608;11.462;2024-03-02T21:33:38;3.80;99.90
49042;DHT22;34859;51.608;11.462;2024-03-02T21:37:32;3.90;99.90
49042;DHT22;34859;51.608;11.462;2024-03-02T21:41:42;3.60;99.90
49042;DHT22;34859;51.608;11.462;2024-03-02T21:45:46;3.40;99.90
49042;DHT22;34859;51.608;11.462;2024-03-02T21:49:46;3.30;99.90
49042;DHT22;34859;51.608;11.462;2024-03-02T21:53:44;3.40;99.90
49042;DHT22;34859;51.608;11.462;2024-03-02T21:57:42;3.30;99.90
49042;DHT22;34859;51.608;11.462;2024-03-02T22:01:32;3.30;99.90
49042;DHT22;34859;51.608;11.462;2024-03-02T22:05:36;3.30;99.90
49042;DHT22;34859;51.608;11.462;2024-03-02T22:09:26;3.30;99.90
49042;DHT22;34859;51.608;11.462;2024-03-02T22:13:21;3.20;99.90
49042;DHT22;34859;51.608;11.462;2024-03-02T22:17:09;3.40;99.90
49042;DHT22;34859;51.608;11.462;2024-03-02T22:21:01;3.40;99.90
49042;DHT22;34859;51.608;11.462;2024-03-02T22:24:57;3.50;99.90
49042;DHT22;34859;51.608;11.462;2024-03-02T22:28:49;3.40;99.90
49042;DHT22;34859;51.608;11.462;2024-03-02T22:32:39;3.40;99.90
49042;DHT22;34859;51.608;11.462;2024-03-02T22:36:28;3.30;99.90
49042;DHT22;34859;51.608;11.462;2024-03-02T22:40:23;3.00;99.90
49042;DHT22;34859;51.608;11.462;2024-03-02T22:44:15;3.00;99.90
49042;DHT22;34859;51.608;11.462;2024-03-02T22:48:10;3.00;99.90
49042;DHT22;34859;51.608;11.462;2024-03-02T22:52:08;2.90;99.90
49042;DHT22;34859;51.608;11.462;2024-03-02T22:56:09;2.80;99.90
49042;DHT22;34859;51.608;11.462;2024-03-02T23:00:04;2.70;99.90
49042;DHT22;34859;51.608;11.462;2024-03-02T23:03:38;2.80;99.90
49042;DHT22;34859;51.608;11.462;2024-03-02T23:07:21;2.70;99.90
49042;DHT22;34859;51.608;11.462;2024-03-02T23:11:08;2.70;99.90
49042;DHT22;34859;51.608;11.462;2024-03-02T23:14:56;2.80;99.90
49042;DHT22;34859;51.608;11.462;2024-03-02T23:18:44;2.70;99.90
49042;DHT22;34859;51.608;11.462;2024-03-02T23:22:31;2.90;99.90
49042;DHT22;34859;51.608;11.462;2024-03-02T23:26:02;2.90;99.90
49042;DHT22;34859;51.608;11.462;2024-03-02T23:29:50;2.80;99.90
49042;DHT22;34859;51.608;11.462;2024-03-02T23:33:37;2.70;99.90
49042;DHT22;34859;51.608;11.462;2024-03-02T23:37:43;2.60;99.90
49042;DHT22;34859;51.608;11.462;2024-03-02T23:41:31;2.50;99.90
49042;DHT22;34859;51.608;11.462;2024-03-02T23:45:18;2.40;99.90
49042;DHT22;34859;51.608;11.462;2024-03-02T23:48:45;2.30;99.90
49042;DHT22;34859;51.608;11.462;2024-03-02T23:52:06;2.20;99.90
49042;DHT22;34859;51.608;11.462;2024-03-02T23:55:53;2.10;99.90
49042;DHT22;34859;51.608;11.462;2024-03-02T23:59:23;2.00;99.90
